Nearby METAR Reports

 

KPMP - Pompano Beach, Florida, USA
Distance from station: NNW 3mi, 5km
Updated: 09/29/2022 3:53am
Mostly cloudy
Mostly cloudy
 Wind from SW
Wind: SW 22 mph , 35 km/h, Gust: 33 mph , 54 km/h
Temperature: 79°F , 26°C
Dew Point: 72°F , 22°C
Humidity: 79%
Barometer: 29.62 inHg , 1003 hPa
Clouds: Mostly cloudy
Visibility: 10 miles , 16 km
Cloud details: Mostly cloudy 2200 ft
Mostly cloudy 3000 ft
2022/09/29 07:53 KPMP 290753Z AUTO 22019G29KT 10SM BKN022 BKN030 26/22 A2962 RMK AO2 PK WND 24031/0719 SLP031 T02610222 $
KFXE - Ft Lauderd/Exec, Florida, USA
Distance from station: W 6mi, 9km
Updated: 09/29/2022 3:53am
Overcast
Overcast
 Wind from SW
Wind: SW 22 mph , 35 km/h, Gust: 35 mph , 56 km/h
Temperature: 81°F , 27°C
Heat Index: 87°F , 31°C
Dew Point: 75°F , 24°C
Humidity: 84%
Barometer: 29.63 inHg , 1003.4 hPa
Clouds: Overcast
Visibility: 10 miles , 16 km
Cloud details: Mostly cloudy 2200 ft
Mostly cloudy 2900 ft
Overcast 7500 ft
2022/09/29 07:53 KFXE 290753Z AUTO 22019G30KT 10SM BKN022 BKN029 OVC075 27/24 A2963 RMK AO2 PK WND 21030/0751 SLP035 T02670239 TSNO $
 
KFLL - Ft Lauderd/Holly, Florida, USA
Distance from station: SSW 11mi, 17km
Updated: 09/29/2022 3:53am
Mostly cloudy
Mostly cloudy
 Wind from SW
Wind: SW 20 mph , 31 km/h, Gust: 36 mph , 57 km/h
Temperature: 79°F , 26°C
Dew Point: 72°F , 22°C
Humidity: 79%
Barometer: 29.63 inHg , 1003.4 hPa
Clouds: Mostly cloudy
Visibility: 10 miles , 16 km
Cloud details: Partly cloudy 2200 ft
Mostly cloudy 3500 ft
Mostly cloudy 10000 ft
2022/09/29 07:53 KFLL 290753Z 23017G31KT 10SM SCT022 BKN035 BKN100 26/22 A2963 RMK AO2 PK WND 22031/0745 SLP034 T02610222 $
KBCT - Boca Raton, Florida, USA
Distance from station: N 12mi, 19km
Updated: 09/28/2022 10:53pm
NOT Current
Overcast
Overcast
 Wind from SW
Wind: SW 29 mph , 46 km/h, Gust: 44 mph , 70 km/h
Temperature: 81°F , 27°C
Heat Index: 86°F , 30°C
Dew Point: 73°F , 23°C
Humidity: 79%
Barometer: 29.61 inHg , 1002.7 hPa
Clouds: Overcast
Visibility: 10 miles , 16 km
Cloud details: Overcast 2500 ft
2022/09/29 02:53 KBCT 290253Z 22025G38KT 10SM OVC025 27/23 A2961
 
KHWO - Hollywood, Florida, USA
Distance from station: SSW 17mi, 27km
Updated: 09/29/2022 3:53am
Mostly cloudy
Mostly cloudy
 Wind from SW
Wind: SW 17 mph , 28 km/h, Gust: 26 mph , 43 km/h
Temperature: 79°F , 26°C
Dew Point: 72°F , 22°C
Humidity: 79%
Barometer: 29.66 inHg , 1004.4 hPa
Clouds: Mostly cloudy
Visibility: 10 miles , 16 km
Cloud details: Mostly cloudy 2100 ft
Mostly cloudy 3800 ft
2022/09/29 07:53 KHWO 290753Z AUTO 22015G23KT 10SM BKN021 BKN038 26/22 A2966 RMK AO2 PK WND 24027/0739 SLP044 T02560217
KOPF - Miami/Opa Locka, Florida, USA
Distance from station: SSW 24mi, 38km
Updated: 09/29/2022 4:04am
Mostly cloudy
Mostly cloudy
 Wind from WSW
Wind: WSW 16 mph , 26 km/h, Gust: 26 mph , 43 km/h
Temperature: 79°F , 26°C
Dew Point: 72°F , 22°C
Humidity: 79%
Barometer: 29.66 inHg , 1004.4 hPa
Clouds: Mostly cloudy
Visibility: 10 miles , 16 km
Cloud details: Mostly cloudy 2300 ft
2022/09/29 08:04 KOPF 290804Z AUTO 24014G23KT 10SM BKN023 26/22 A2966 RMK AO2 T02610217 $
 
KMIA - Miami, Florida, USA
Distance from station: SSW 31mi, 50km
Updated: 09/29/2022 3:53am
Partly cloudy
Partly cloudy
 Wind from SW
Wind: SW 12 mph , 19 km/h, Gust: 22 mph , 35 km/h
Temperature: 79°F , 26°C
Dew Point: 73°F , 23°C
Humidity: 84%
Barometer: 29.67 inHg , 1004.7 hPa
Clouds: Partly cloudy
Visibility: 10 miles , 16 km
Cloud details: Few Clouds 2000 ft
Partly cloudy 3600 ft
Partly cloudy 25000 ft
2022/09/29 07:53 KMIA 290753Z 23010G19KT 10SM FEW020 SCT036 SCT250 26/23 A2967 RMK AO2 SLP047 T02610228 $
KPBI - West Palm Beach, Florida, USA
Distance from station: N 33mi, 52km
Updated: 09/29/2022 3:53am
Mostly cloudy
Mostly cloudy
 Wind from SSW
Wind: SSW 31 mph , 50 km/h, Gust: 40 mph , 65 km/h
Temperature: 79°F , 26°C
Dew Point: 72°F , 22°C
Humidity: 79%
Barometer: 29.56 inHg , 1001 hPa
Clouds: Mostly cloudy
Visibility: 10 miles , 16 km
Cloud details: Mostly cloudy 2000 ft
2022/09/29 07:53 KPBI 290753Z 20027G35KT 10SM BKN020 26/22 A2956 RMK AO2 PK WND 21041/0656 SLP009 T02610217
 
KTMB - Miami/Tamiami, Florida, USA
Distance from station: SSW 44mi, 71km
Updated: 09/29/2022 3:53am
Few Clouds
Few Clouds
 Wind from WSW
Wind: WSW 12 mph , 19 km/h, Gust: 20 mph , 31 km/h
Temperature: 79°F , 26°C
Dew Point: 73°F , 23°C
Humidity: 84%
Barometer: 29.67 inHg , 1004.7 hPa
Clouds: Few Clouds
Visibility: 10 miles , 16 km
Cloud details: Few Clouds 2400 ft
2022/09/29 07:53 KTMB 290753Z AUTO 24010G17KT 10SM FEW024 26/23 A2967 RMK AO2 SLP048 T02610228